Time;durP1;ratioP1;P1;durP2;ratioP2;P2;SDS_P1;SDS_P2;PMS_P1;PMS_P2;Temp;Humidity;BMP_temperature;BMP_pressure;BME280_temperature;BME280_humidity;BME280_pressure;Samples;Min_cycle;Max_cycle;Signal;HPM_P1;HPM_P2
2021/10/20 00:01:17;;;;;;;8.30;7.60;;;9.60;81.60;;;;;;5095974;29;20051;-72
2021/10/20 00:03:50;;;;;;;8.45;7.75;;;9.60;81.80;;;;;;5090055;28;20059;-73
2021/10/20 00:06:22;;;;;;;8.60;7.90;;;9.60;81.90;;;;;;5113347;28;20145;-73
2021/10/20 00:08:54;;;;;;;8.82;8.13;;;9.50;83.20;;;;;;5111179;28;20142;-73
2021/10/20 00:11:26;;;;;;;9.75;8.82;;;9.50;82.70;;;;;;5090405;28;20071;-72
2021/10/20 00:13:58;;;;;;;8.70;8.00;;;9.40;82.00;;;;;;5111834;28;20046;-74
2021/10/20 00:16:30;;;;;;;8.82;8.13;;;9.30;82.10;;;;;;5115623;28;20047;-72
2021/10/20 00:19:01;;;;;;;8.90;8.20;;;9.40;83.20;;;;;;5094207;28;20445;-73
2021/10/20 00:21:33;;;;;;;8.60;7.90;;;9.30;82.60;;;;;;5115741;28;20074;-73
2021/10/20 00:24:06;;;;;;;8.40;7.70;;;9.30;83.10;;;;;;5115395;28;20126;-72
2021/10/20 00:26:38;;;;;;;8.88;8.10;;;9.20;83.20;;;;;;5116714;28;20155;-73
2021/10/20 00:29:10;;;;;;;8.50;7.80;;;9.20;83.60;;;;;;5116438;28;20746;-72
2021/10/20 00:31:42;;;;;;;8.82;8.13;;;9.20;84.20;;;;;;5115299;28;20055;-71
2021/10/20 00:34:14;;;;;;;8.90;8.20;;;9.20;84.50;;;;;;5115766;28;20043;-72
2021/10/20 00:36:45;;;;;;;9.57;8.68;;;9.20;84.10;;;;;;5118243;28;20067;-72
2021/10/20 00:39:17;;;;;;;8.93;8.05;;;9.10;84.30;;;;;;5115857;28;20054;-72
2021/10/20 00:41:52;;;;;;;8.55;7.80;;;9.10;84.20;;;;;;5116117;28;20069;-72
2021/10/20 00:44:24;;;;;;;8.43;7.72;;;9.20;83.10;;;;;;5116725;28;20125;-72
2021/10/20 00:46:56;;;;;;;8.82;8.10;;;9.20;83.30;;;;;;5117555;28;20047;-73
2021/10/20 00:49:28;;;;;;;8.95;8.15;;;9.10;84.40;;;;;;5115130;28;20047;-72
2021/10/20 00:52:00;;;;;;;9.02;8.23;;;9.10;84.10;;;;;;5116483;28;20061;-72
2021/10/20 00:54:32;;;;;;;9.10;8.30;;;9.10;83.40;;;;;;5116431;28;20098;-73
2021/10/20 00:57:05;;;;;;;8.65;7.88;;;9.00;83.40;;;;;;5112180;28;20174;-72
2021/10/20 00:59:39;;;;;;;9.73;8.93;;;8.90;83.00;;;;;;5117219;28;20074;-72
2021/10/20 01:02:11;;;;;;;9.40;8.60;;;8.90;82.90;;;;;;5114672;28;20134;-73
2021/10/20 01:04:44;;;;;;;8.93;8.23;;;8.80;82.70;;;;;;5099942;28;20114;-72
2021/10/20 01:07:17;;;;;;;8.95;8.05;;;8.90;82.70;;;;;;5116188;28;20083;-72
2021/10/20 01:09:49;;;;;;;9.23;8.43;;;8.80;82.40;;;;;;5099067;28;20536;-72
2021/10/20 01:12:25;;;;;;;9.07;8.35;;;8.80;82.40;;;;;;5114277;28;22154;-73
2021/10/20 01:14:57;;;;;;;9.13;8.32;;;8.70;82.20;;;;;;5118183;28;20073;-73
2021/10/20 01:17:29;;;;;;;9.05;8.25;;;8.70;82.50;;;;;;5115723;28;20461;-72
2021/10/20 01:20:02;;;;;;;8.90;8.15;;;8.60;82.90;;;;;;5116614;28;20440;-73
2021/10/20 01:22:35;;;;;;;9.70;8.15;;;8.60;82.80;;;;;;5114920;28;20082;-72
2021/10/20 01:25:08;;;;;;;8.93;8.23;;;8.60;82.90;;;;;;5115465;28;20055;-69
2021/10/20 01:27:40;;;;;;;8.60;7.90;;;8.50;83.50;;;;;;5114908;28;20580;-72
2021/10/20 01:30:12;;;;;;;8.32;7.63;;;8.50;84.40;;;;;;5115775;28;20062;-72
2021/10/20 01:32:45;;;;;;;8.30;7.60;;;8.40;84.10;;;;;;5115483;28;20516;-72
2021/10/20 01:35:17;;;;;;;8.57;7.88;;;8.50;83.40;;;;;;5115778;28;20079;-72
2021/10/20 01:37:49;;;;;;;8.40;7.70;;;8.50;83.60;;;;;;5115389;28;20043;-71
2021/10/20 01:40:21;;;;;;;8.27;7.57;;;8.40;86.80;;;;;;5116200;28;20050;-71
2021/10/20 01:42:53;;;;;;;8.00;7.22;;;8.40;86.70;;;;;;5113185;28;20513;-71
2021/10/20 01:45:25;;;;;;;8.80;8.00;;;8.40;87.40;;;;;;5093803;29;20125;-71
2021/10/20 01:47:57;;;;;;;8.15;7.45;;;8.40;88.20;;;;;;5115957;28;20560;-71
2021/10/20 01:50:29;;;;;;;8.60;7.90;;;8.40;89.10;;;;;;5116315;28;20051;-71
2021/10/20 01:53:02;;;;;;;8.40;7.70;;;8.40;87.50;;;;;;5115112;28;20046;-71
2021/10/20 01:55:34;;;;;;;8.50;7.70;;;8.40;86.30;;;;;;5116680;28;20043;-72
2021/10/20 01:58:06;;;;;;;8.13;7.32;;;8.40;86.70;;;;;;5115326;28;20155;-71
2021/10/20 02:00:38;;;;;;;8.30;7.50;;;8.40;89.00;;;;;;5099040;28;20827;-72
2021/10/20 02:03:10;;;;;;;8.80;8.00;;;8.50;89.60;;;;;;5115382;28;20057;-71
2021/10/20 02:05:41;;;;;;;23.35;8.35;;;8.50;87.50;;;;;;5093507;28;20130;-71
2021/10/20 02:08:13;;;;;;;8.70;7.90;;;8.40;86.80;;;;;;5115704;28;20054;-72
2021/10/20 02:10:45;;;;;;;8.45;7.75;;;8.40;86.30;;;;;;5115616;28;20130;-73
2021/10/20 02:13:17;;;;;;;8.30;7.60;;;8.40;86.40;;;;;;5113672;28;20067;-72
2021/10/20 02:15:49;;;;;;;9.13;8.23;;;8.30;87.60;;;;;;5115300;28;20104;-72
2021/10/20 02:18:23;;;;;;;8.68;7.88;;;8.20;87.00;;;;;;5114965;28;20090;-71
2021/10/20 02:20:55;;;;;;;8.68;7.80;;;8.20;86.80;;;;;;5113685;28;20055;-71
2021/10/20 02:23:27;;;;;;;8.43;7.63;;;8.20;86.70;;;;;;5113878;28;20529;-71
2021/10/20 02:26:00;;;;;;;8.80;8.00;;;8.20;86.40;;;;;;5113264;28;20090;-73
2021/10/20 02:28:32;;;;;;;8.55;7.75;;;8.20;86.50;;;;;;5115029;28;20540;-73
2021/10/20 02:31:04;;;;;;;8.30;7.50;;;8.20;85.90;;;;;;5114533;28;20138;-71
2021/10/20 02:33:36;;;;;;;8.57;7.80;;;8.20;86.40;;;;;;5115542;28;20130;-71
2021/10/20 02:36:08;;;;;;;8.60;7.90;;;8.30;85.90;;;;;;5113896;28;20743;-71
2021/10/20 02:38:40;;;;;;;8.20;7.50;;;8.30;85.80;;;;;;5114430;28;20117;-72
2021/10/20 02:41:12;;;;;;;8.38;7.68;;;8.30;85.70;;;;;;5113750;28;20130;-71
2021/10/20 02:43:44;;;;;;;8.30;7.60;;;8.30;86.20;;;;;;5116050;28;20134;-73
2021/10/20 02:46:16;;;;;;;8.50;7.80;;;8.30;87.50;;;;;;5112273;28;20155;-73
2021/10/20 02:48:48;;;;;;;8.70;8.00;;;8.30;86.20;;;;;;5098187;29;20431;-74
2021/10/20 02:51:19;;;;;;;8.18;7.47;;;8.30;86.40;;;;;;5095667;28;20055;-73
2021/10/20 02:53:51;;;;;;;8.65;7.95;;;8.30;86.60;;;;;;5115291;28;20067;-73
2021/10/20 02:56:23;;;;;;;8.25;7.57;;;8.30;86.10;;;;;;5112877;28;20047;-73
2021/10/20 02:58:55;;;;;;;9.02;8.23;;;8.30;86.40;;;;;;5114348;28;20059;-73
2021/10/20 03:01:27;;;;;;;8.30;7.60;;;8.30;86.50;;;;;;5111539;28;20044;-72
2021/10/20 03:03:59;;;;;;;8.60;7.80;;;8.20;86.10;;;;;;5115269;28;20568;-72
2021/10/20 03:06:31;;;;;;;8.30;7.60;;;8.20;86.10;;;;;;5091043;28;20051;-73
2021/10/20 03:09:04;;;;;;;8.15;7.45;;;8.20;86.40;;;;;;5114835;28;20137;-72
2021/10/20 03:11:36;;;;;;;8.55;7.85;;;8.10;86.50;;;;;;5111929;28;20186;-72
2021/10/20 03:14:07;;;;;;;8.32;7.53;;;8.00;86.40;;;;;;5114912;28;20091;-72
2021/10/20 03:16:39;;;;;;;8.85;8.00;;;8.00;86.70;;;;;;5114155;28;20103;-72
2021/10/20 03:19:12;;;;;;;8.40;7.60;;;8.00;86.40;;;;;;5114026;28;20047;-73
2021/10/20 03:21:44;;;;;;;8.20;7.40;;;8.00;86.40;;;;;;5112174;28;20051;-73
2021/10/20 03:24:16;;;;;;;7.85;7.15;;;8.00;85.90;;;;;;5115335;28;20047;-73
2021/10/20 03:26:47;;;;;;;7.80;7.00;;;8.00;86.60;;;;;;5113355;28;20043;-72
2021/10/20 03:29:19;;;;;;;7.75;7.13;;;7.90;86.60;;;;;;5114560;28;20476;-72
2021/10/20 03:31:51;;;;;;;8.25;7.55;;;7.90;86.20;;;;;;5112207;28;20420;-72
2021/10/20 03:34:23;;;;;;;8.18;7.43;;;7.90;86.60;;;;;;5113610;28;20130;-72
2021/10/20 03:36:55;;;;;;;8.75;7.43;;;7.90;86.70;;;;;;5114557;28;20138;-72
2021/10/20 03:39:27;;;;;;;7.82;7.10;;;7.90;87.10;;;;;;5113848;28;20051;-72
2021/10/20 03:41:59;;;;;;;8.15;7.45;;;7.90;86.40;;;;;;5112553;28;20051;-72
2021/10/20 03:44:31;;;;;;;7.95;7.25;;;7.90;86.30;;;;;;5113486;28;20051;-73
2021/10/20 03:47:03;;;;;;;7.70;7.00;;;7.90;87.60;;;;;;5113602;28;20161;-73
2021/10/20 03:49:35;;;;;;;7.47;6.78;;;7.90;88.50;;;;;;5113283;28;20055;-74
2021/10/20 03:52:06;;;;;;;7.25;6.63;;;7.90;89.00;;;;;;5113225;28;20544;-72
2021/10/20 03:54:38;;;;;;;8.30;7.50;;;7.90;90.30;;;;;;5113279;28;20615;-72
2021/10/20 03:57:11;;;;;;;7.90;7.20;;;8.00;91.70;;;;;;5114100;28;20138;-73
2021/10/20 03:59:44;;;;;;;7.90;7.20;;;8.10;92.00;;;;;;5114064;28;20178;-74
2021/10/20 04:02:16;;;;;;;8.20;7.50;;;8.10;90.40;;;;;;5113390;28;20532;-73
2021/10/20 04:04:48;;;;;;;8.50;7.70;;;8.10;90.30;;;;;;5112864;28;20058;-74
2021/10/20 04:07:20;;;;;;;8.88;8.13;;;8.10;89.30;;;;;;5114409;28;20055;-74
2021/10/20 04:09:51;;;;;;;9.50;8.60;;;8.10;88.50;;;;;;5113763;28;20590;-72
2021/10/20 04:12:23;;;;;;;9.50;8.60;;;8.00;87.60;;;;;;5113642;28;20134;-72
2021/10/20 04:14:55;;;;;;;9.43;8.63;;;7.90;87.90;;;;;;5113188;28;20130;-73
2021/10/20 04:17:27;;;;;;;8.82;8.13;;;7.90;87.70;;;;;;5113530;28;20061;-73
2021/10/20 04:19:59;;;;;;;8.80;8.00;;;7.80;87.70;;;;;;5090493;28;20057;-72
2021/10/20 04:22:31;;;;;;;8.23;7.53;;;7.80;87.80;;;;;;5112616;28;20110;-74
2021/10/20 04:25:05;;;;;;;8.18;7.47;;;7.80;88.10;;;;;;5111719;28;20555;-73
2021/10/20 04:27:38;;;;;;;8.00;7.30;;;7.80;87.90;;;;;;5113499;28;20114;-72
2021/10/20 04:30:12;;;;;;;8.23;7.53;;;7.80;88.10;;;;;;5112445;28;20157;-73
2021/10/20 04:32:44;;;;;;;8.18;7.38;;;7.80;88.40;;;;;;5111783;28;20751;-72
2021/10/20 04:35:19;;;;;;;8.25;7.55;;;7.80;88.60;;;;;;5113000;28;20047;-72
2021/10/20 04:37:51;;;;;;;8.52;7.72;;;7.80;89.70;;;;;;5112341;28;20524;-73
2021/10/20 04:40:23;;;;;;;8.60;7.80;;;7.80;90.10;;;;;;5114646;28;20143;-73
2021/10/20 04:42:55;;;;;;;8.40;7.70;;;7.80;89.10;;;;;;5094046;28;20145;-72
2021/10/20 04:45:27;;;;;;;8.07;7.28;;;7.70;90.10;;;;;;5112718;28;20047;-72
2021/10/20 04:47:58;;;;;;;8.00;7.30;;;7.70;89.80;;;;;;5113067;28;20057;-73
2021/10/20 04:50:31;;;;;;;8.25;7.55;;;7.70;89.40;;;;;;5114162;28;20055;-73
2021/10/20 04:53:03;;;;;;;8.20;7.50;;;7.60;90.20;;;;;;5111947;28;20051;-74
2021/10/20 04:55:35;;;;;;;8.52;7.72;;;7.60;90.00;;;;;;5112030;28;20114;-74
2021/10/20 04:58:08;;;;;;;8.90;8.10;;;7.70;89.20;;;;;;5111040;28;20050;-74
2021/10/20 05:00:40;;;;;;;8.40;7.70;;;7.70;89.10;;;;;;5114585;28;20928;-73
2021/10/20 05:03:12;;;;;;;8.65;7.95;;;7.70;88.80;;;;;;5093769;28;20107;-73
2021/10/20 05:05:44;;;;;;;8.30;7.50;;;7.70;88.30;;;;;;5104534;28;20051;-73
2021/10/20 05:08:16;;;;;;;8.63;7.88;;;7.70;88.20;;;;;;5097404;28;20065;-73
2021/10/20 05:10:47;;;;;;;8.60;7.80;;;7.70;88.40;;;;;;5113745;28;20051;-73
2021/10/20 05:13:19;;;;;;;9.50;8.50;;;7.60;88.30;;;;;;5115233;28;20075;-74
2021/10/20 05:15:51;;;;;;;8.35;7.47;;;7.50;88.30;;;;;;5114489;28;20481;-72
2021/10/20 05:18:23;;;;;;;13.93;12.43;;;7.50;89.00;;;;;;5115606;28;20381;-73
2021/10/20 05:20:55;;;;;;;11.75;10.10;;;7.50;89.70;;;;;;5113878;28;20133;-72
2021/10/20 05:23:27;;;;;;;19.58;14.60;;;7.50;89.90;;;;;;5093939;28;20071;-72
2021/10/20 05:26:00;;;;;;;11.90;10.70;;;7.50;90.00;;;;;;5115870;28;20798;-72
2021/10/20 05:28:31;;;;;;;10.20;9.23;;;7.40;89.80;;;;;;5115752;28;20828;-72
2021/10/20 05:31:03;;;;;;;12.48;11.27;;;7.40;89.80;;;;;;5114508;28;20241;-73
2021/10/20 05:33:38;;;;;;;11.45;10.35;;;7.40;89.30;;;;;;5114980;28;20050;-72
2021/10/20 05:36:10;;;;;;;11.63;10.63;;;7.40;89.30;;;;;;5112834;28;20166;-72
2021/10/20 05:38:42;;;;;;;20.77;17.90;;;7.40;89.30;;;;;;5097106;28;20043;-73
2021/10/20 05:41:14;;;;;;;13.75;11.13;;;7.40;89.50;;;;;;5113045;28;20154;-72
2021/10/20 05:43:46;;;;;;;10.95;9.95;;;7.50;89.10;;;;;;5113803;28;20119;-71
2021/10/20 05:46:18;;;;;;;9.95;9.05;;;7.50;88.80;;;;;;5094316;29;20080;-72
2021/10/20 05:48:50;;;;;;;10.85;9.77;;;7.50;88.80;;;;;;5096957;28;20050;-72
2021/10/20 05:51:22;;;;;;;10.45;9.35;;;7.50;88.60;;;;;;5110623;28;20052;-72
2021/10/20 05:53:54;;;;;;;10.65;9.50;;;7.60;88.30;;;;;;5116005;28;20846;-72
2021/10/20 05:56:29;;;;;;;13.07;10.90;;;7.60;88.50;;;;;;5116686;28;20927;-71
2021/10/20 05:59:02;;;;;;;13.50;11.52;;;7.60;88.70;;;;;;5115771;28;20102;-73
2021/10/20 06:01:34;;;;;;;12.05;10.75;;;7.60;88.00;;;;;;5113155;28;20054;-73
2021/10/20 06:04:07;;;;;;;12.68;10.60;;;7.60;88.30;;;;;;5114594;28;20444;-73
2021/10/20 06:06:39;;;;;;;12.30;10.93;;;7.60;88.00;;;;;;5112113;28;20051;-72
2021/10/20 06:09:11;;;;;;;11.23;10.13;;;7.60;88.40;;;;;;5114056;28;20159;-72
2021/10/20 06:11:44;;;;;;;10.48;9.45;;;7.60;88.50;;;;;;5111213;28;20043;-72
2021/10/20 06:14:16;;;;;;;10.43;9.30;;;7.70;88.20;;;;;;5113495;28;20126;-72
2021/10/20 06:16:47;;;;;;;9.63;8.73;;;7.70;88.60;;;;;;5113007;28;20051;-71
2021/10/20 06:19:19;;;;;;;9.43;8.52;;;7.70;90.20;;;;;;5110782;28;20571;-71
2021/10/20 06:21:52;;;;;;;9.68;8.77;;;7.70;89.50;;;;;;5113025;28;20158;-72
2021/10/20 06:24:24;;;;;;;9.60;8.70;;;7.80;88.80;;;;;;5112105;28;20536;-72
2021/10/20 06:26:56;;;;;;;8.93;8.13;;;7.80;88.60;;;;;;5112211;28;20069;-72
2021/10/20 06:29:28;;;;;;;10.25;9.25;;;7.80;89.90;;;;;;5113517;28;20045;-72
2021/10/20 06:32:00;;;;;;;9.18;8.35;;;7.90;90.40;;;;;;5109900;28;20050;-73
2021/10/20 06:34:35;;;;;;;9.80;8.90;;;7.90;89.50;;;;;;5113620;28;20051;-70
2021/10/20 06:37:07;;;;;;;9.40;8.48;;;7.90;90.60;;;;;;5115503;28;20102;-72
2021/10/20 06:39:39;;;;;;;8.65;7.75;;;7.90;90.90;;;;;;5082188;28;20047;-71
2021/10/20 06:42:11;;;;;;;8.32;7.47;;;8.00;91.20;;;;;;5113478;28;20061;-71
2021/10/20 06:44:43;;;;;;;9.10;8.20;;;8.10;92.90;;;;;;5114676;28;20043;-72
2021/10/20 06:47:15;;;;;;;10.10;9.13;;;8.10;92.20;;;;;;5113652;28;20134;-71
2021/10/20 06:49:46;;;;;;;10.02;9.13;;;8.20;91.40;;;;;;5113474;28;20122;-72
2021/10/20 06:52:19;;;;;;;9.88;9.07;;;8.30;90.80;;;;;;5112723;28;20122;-72
2021/10/20 06:54:50;;;;;;;10.40;9.40;;;8.30;90.20;;;;;;5113511;28;20408;-73
2021/10/20 06:57:22;;;;;;;10.55;9.55;;;8.40;89.40;;;;;;5114619;28;20526;-72
2021/10/20 06:59:54;;;;;;;10.63;9.73;;;8.50;89.20;;;;;;5096277;28;20530;-72
2021/10/20 07:02:26;;;;;;;10.38;9.27;;;8.60;88.50;;;;;;5112058;28;20529;-73
2021/10/20 07:04:59;;;;;;;10.68;9.60;;;8.70;88.40;;;;;;5113293;28;20047;-73
2021/10/20 07:07:31;;;;;;;9.95;9.15;;;8.80;88.50;;;;;;5115151;28;20047;-73
2021/10/20 07:10:04;;;;;;;10.43;9.43;;;8.90;88.50;;;;;;5114527;28;20126;-74
2021/10/20 07:12:37;;;;;;;10.05;9.15;;;9.00;88.10;;;;;;5112643;28;20388;-73
2021/10/20 07:15:09;;;;;;;10.30;9.25;;;9.10;87.90;;;;;;5113606;28;20460;-73
2021/10/20 07:17:41;;;;;;;10.18;9.15;;;9.20;88.10;;;;;;5113814;28;21070;-73
2021/10/20 07:20:13;;;;;;;9.27;8.48;;;9.30;88.70;;;;;;5113615;28;20098;-74
2021/10/20 07:22:46;;;;;;;9.88;8.98;;;9.40;89.80;;;;;;5114109;28;20461;-73
2021/10/20 07:25:18;;;;;;;9.73;8.82;;;9.50;89.60;;;;;;5114137;28;20079;-73
2021/10/20 07:27:51;;;;;;;9.45;8.65;;;9.60;89.30;;;;;;5114653;28;20740;-73
2021/10/20 07:30:22;;;;;;;9.25;8.45;;;9.70;88.90;;;;;;5112838;28;22136;-72
2021/10/20 07:32:55;;;;;;;9.73;8.93;;;9.80;88.70;;;;;;5109929;28;20106;-71
2021/10/20 07:35:27;;;;;;;10.25;9.35;;;9.90;88.20;;;;;;5112557;28;20104;-71
2021/10/20 07:37:59;;;;;;;10.23;9.23;;;10.10;88.40;;;;;;5091392;28;20039;-72
2021/10/20 07:40:32;;;;;;;10.10;9.23;;;10.10;88.80;;;;;;5112634;28;20043;-72
2021/10/20 07:43:03;;;;;;;9.80;9.00;;;10.30;89.00;;;;;;5110147;28;20066;-72
2021/10/20 07:45:35;;;;;;;10.45;9.63;;;10.40;89.10;;;;;;5113259;28;20404;-72
2021/10/20 07:48:07;;;;;;;9.88;9.07;;;10.50;89.40;;;;;;5112577;28;20058;-73
2021/10/20 07:50:42;;;;;;;10.38;9.48;;;10.70;89.10;;;;;;5113255;28;20051;-72
2021/10/20 07:53:14;;;;;;;10.63;9.73;;;10.80;88.40;;;;;;5112032;28;20039;-71
2021/10/20 07:55:46;;;;;;;10.73;9.82;;;10.90;87.90;;;;;;5114090;28;20568;-72
2021/10/20 07:58:17;;;;;;;10.82;9.98;;;11.10;88.70;;;;;;5093886;29;20174;-73
2021/10/20 08:00:49;;;;;;;10.95;10.05;;;11.30;88.90;;;;;;5113469;28;20047;-72
2021/10/20 08:03:22;;;;;;;11.38;10.38;;;11.40;87.50;;;;;;5113180;28;20050;-72
2021/10/20 08:05:54;;;;;;;11.23;10.32;;;11.50;88.30;;;;;;5112025;28;20199;-71
2021/10/20 08:08:26;;;;;;;11.55;10.55;;;11.70;88.20;;;;;;5113334;28;20047;-72
2021/10/20 08:10:59;;;;;;;11.85;10.82;;;11.80;87.00;;;;;;5111807;28;20158;-73
2021/10/20 08:13:31;;;;;;;12.10;11.05;;;12.00;87.60;;;;;;5112233;28;20039;-73
2021/10/20 08:16:04;;;;;;;11.43;10.43;;;12.10;87.30;;;;;;5095812;28;20129;-74
2021/10/20 08:18:36;;;;;;;11.48;10.57;;;12.20;88.20;;;;;;5095068;28;20047;-74
2021/10/20 08:21:08;;;;;;;11.13;10.13;;;12.40;87.60;;;;;;5111759;28;20098;-73
2021/10/20 08:23:43;;;;;;;12.02;11.13;;;12.50;86.80;;;;;;5114687;28;20646;-73
2021/10/20 08:26:15;;;;;;;11.63;10.73;;;12.60;87.10;;;;;;5091411;29;20139;-74
2021/10/20 08:28:47;;;;;;;13.25;12.15;;;12.80;86.90;;;;;;5114314;28;20398;-74
2021/10/20 08:31:19;;;;;;;14.38;13.10;;;12.90;86.90;;;;;;5112889;28;20062;-73
2021/10/20 08:33:51;;;;;;;13.23;12.02;;;13.00;86.30;;;;;;5112705;28;20406;-72
2021/10/20 08:36:23;;;;;;;13.35;12.05;;;13.10;85.40;;;;;;5112505;28;20043;-73
2021/10/20 08:38:55;;;;;;;13.60;12.50;;;13.30;86.80;;;;;;5116983;28;20651;-74
2021/10/20 08:41:27;;;;;;;13.60;12.35;;;13.40;87.60;;;;;;5116134;28;20047;-74
2021/10/20 08:44:00;;;;;;;14.02;12.43;;;13.60;85.50;;;;;;5099994;28;20054;-73
2021/10/20 08:46:32;;;;;;;14.00;12.70;;;13.70;84.70;;;;;;5099547;29;20158;-73
2021/10/20 08:49:04;;;;;;;12.90;11.90;;;13.80;84.20;;;;;;5118031;28;20039;-73
2021/10/20 08:51:37;;;;;;;13.45;12.35;;;13.90;83.10;;;;;;5115690;28;20140;-74
2021/10/20 08:54:09;;;;;;;12.55;11.45;;;14.00;85.70;;;;;;5117143;28;20130;-73
2021/10/20 08:56:44;;;;;;;12.27;11.38;;;14.10;82.50;;;;;;5114374;28;20130;-73
2021/10/20 08:59:16;;;;;;;11.88;10.98;;;14.20;81.00;;;;;;5116675;28;20130;-73
2021/10/20 09:01:48;;;;;;;11.43;10.55;;;14.40;79.90;;;;;;5099844;28;20066;-74
2021/10/20 09:04:22;;;;;;;12.05;11.15;;;14.40;79.40;;;;;;5117033;28;20040;-74
2021/10/20 09:06:54;;;;;;;11.60;10.70;;;14.50;77.70;;;;;;5116422;28;20146;-74
2021/10/20 09:09:33;;;;;;;11.63;10.82;;;14.50;76.60;;;;;;5100892;28;21030;-72
2021/10/20 09:12:05;;;;;;;11.38;10.48;;;14.60;77.30;;;;;;5098730;29;20055;-74
2021/10/20 09:14:37;;;;;;;13.05;12.05;;;14.70;76.40;;;;;;5116611;28;20425;-73
2021/10/20 09:17:08;;;;;;;12.45;11.45;;;14.80;77.20;;;;;;5116458;28;20082;-73
2021/10/20 09:19:40;;;;;;;12.07;11.07;;;14.90;76.10;;;;;;5117654;28;20507;-74
2021/10/20 09:22:13;;;;;;;12.10;11.20;;;15.00;76.20;;;;;;5115182;28;20051;-74
2021/10/20 09:24:45;;;;;;;11.88;10.88;;;15.10;74.10;;;;;;5116394;28;20057;-74
2021/10/20 09:27:26;;;;;;;11.93;11.02;;;15.20;76.90;;;;;;5115810;28;20776;-74
2021/10/20 09:30:13;;;;;;;12.23;11.23;;;15.40;73.60;;;;;;5099897;28;20051;-73
2021/10/20 09:32:47;;;;;;;12.30;11.32;;;15.50;72.40;;;;;;5115440;28;20051;-74
2021/10/20 09:35:20;;;;;;;11.63;10.77;;;15.70;71.00;;;;;;5116551;28;20126;-74
2021/10/20 09:37:58;;;;;;;12.10;11.00;;;15.80;71.80;;;;;;5115515;28;20131;-73
2021/10/20 09:40:35;;;;;;;12.55;11.65;;;15.90;70.50;;;;;;5115066;28;20117;-75
2021/10/20 09:43:08;;;;;;;12.07;11.18;;;16.00;69.90;;;;;;5114443;28;20130;-75
2021/10/20 09:45:43;;;;;;;12.15;11.25;;;16.10;68.00;;;;;;5115876;28;20572;-75
2021/10/20 09:48:21;;;;;;;12.57;11.68;;;16.20;66.90;;;;;;5115312;28;20126;-76
2021/10/20 09:50:58;;;;;;;12.88;11.93;;;16.40;68.10;;;;;;5114983;28;20052;-73
2021/10/20 09:53:32;;;;;;;13.00;12.10;;;16.50;65.00;;;;;;5116210;28;20043;-75
2021/10/20 09:56:20;;;;;;;13.68;12.57;;;16.60;65.30;;;;;;5115996;28;20130;-74
2021/10/20 09:58:52;;;;;;;13.43;12.48;;;16.70;69.50;;;;;;5117288;28;20070;-74
2021/10/20 10:01:26;;;;;;;13.55;12.55;;;16.80;67.40;;;;;;5114515;28;20072;-74
2021/10/20 10:04:02;;;;;;;13.50;12.43;;;16.80;64.40;;;;;;5116006;28;20063;-74
2021/10/20 10:06:34;;;;;;;13.68;12.60;;;16.80;63.90;;;;;;5115779;28;20628;-76
2021/10/20 10:09:23;;;;;;;13.32;12.32;;;17.00;65.50;;;;;;5114602;28;20058;-75
2021/10/20 10:11:58;;;;;;;13.60;12.60;;;17.10;65.80;;;;;;5113673;28;20133;-75
2021/10/20 10:14:43;;;;;;;13.85;12.85;;;17.20;62.00;;;;;;5115925;28;20122;-74
2021/10/20 10:17:17;;;;;;;13.07;12.07;;;17.30;65.20;;;;;;5115811;28;20708;-73
2021/10/20 10:19:49;;;;;;;13.73;12.63;;;17.40;64.40;;;;;;5116460;28;20118;-76
2021/10/20 10:22:26;;;;;;;13.70;12.60;;;17.40;58.70;;;;;;5090047;29;20134;-75
2021/10/20 10:25:05;;;;;;;13.52;12.55;;;17.50;64.30;;;;;;5115083;28;20047;-75
2021/10/20 10:27:40;;;;;;;13.88;12.88;;;17.50;62.70;;;;;;5115759;28;20492;-74
2021/10/20 10:30:18;;;;;;;14.10;13.00;;;17.60;62.40;;;;;;5117026;28;20051;-74
2021/10/20 10:32:57;;;;;;;13.70;12.70;;;17.70;61.90;;;;;;5114974;28;20039;-76
2021/10/20 10:35:35;;;;;;;14.10;13.10;;;17.70;62.20;;;;;;5116713;28;20636;-74
2021/10/20 10:38:07;;;;;;;14.38;13.38;;;17.80;61.10;;;;;;5098274;29;20051;-73
2021/10/20 10:40:39;;;;;;;14.27;13.27;;;17.90;60.30;;;;;;5116255;28;20124;-74
2021/10/20 10:43:11;;;;;;;13.75;12.85;;;17.90;59.70;;;;;;5114347;28;20138;-74
2021/10/20 10:45:47;;;;;;;14.43;13.43;;;18.00;58.50;;;;;;5115498;28;20596;-74
2021/10/20 10:48:30;;;;;;;14.25;13.25;;;18.10;60.90;;;;;;5115220;28;20046;-75
2021/10/20 10:51:13;;;;;;;13.52;12.63;;;18.10;57.80;;;;;;5112776;28;20157;-75
2021/10/20 10:53:52;;;;;;;14.25;13.25;;;18.10;54.50;;;;;;5097816;29;21048;-74
2021/10/20 10:56:24;;;;;;;14.07;13.05;;;18.00;56.40;;;;;;5112576;28;20055;-75
2021/10/20 10:58:55;;;;;;;14.35;13.30;;;18.00;58.20;;;;;;5115489;28;20513;-73
2021/10/20 11:01:38;;;;;;;14.68;13.57;;;18.00;58.20;;;;;;5112315;28;20130;-73
2021/10/20 11:04:26;;;;;;;14.93;13.82;;;18.10;59.50;;;;;;5113373;28;20424;-74
2021/10/20 11:07:00;;;;;;;14.77;13.77;;;18.10;58.60;;;;;;5113143;28;20161;-74
2021/10/20 11:09:34;;;;;;;14.70;13.50;;;18.10;57.70;;;;;;5113814;28;20138;-74
2021/10/20 11:12:06;;;;;;;14.48;13.27;;;18.10;56.60;;;;;;5112011;28;20075;-73
2021/10/20 11:14:41;;;;;;;14.48;13.48;;;18.10;57.50;;;;;;5113841;28;20154;-74
2021/10/20 11:17:13;;;;;;;15.30;14.20;;;18.10;58.50;;;;;;5113999;28;20126;-74
2021/10/20 11:19:45;;;;;;;14.18;13.18;;;18.10;55.50;;;;;;5114117;28;20046;-73
2021/10/20 11:22:18;;;;;;;14.13;13.13;;;18.10;56.90;;;;;;5112623;28;20649;-75
2021/10/20 11:24:52;;;;;;;13.80;12.80;;;18.00;61.00;;;;;;5114640;28;20043;-74
2021/10/20 11:27:25;;;;;;;14.75;13.43;;;18.10;60.10;;;;;;5113014;28;20523;-74
2021/10/20 11:29:57;;;;;;;14.23;13.23;;;18.30;61.10;;;;;;5114323;28;20043;-73
2021/10/20 11:32:28;;;;;;;14.38;13.27;;;18.40;61.70;;;;;;5110723;28;20186;-75
2021/10/20 11:35:01;;;;;;;13.85;12.85;;;18.50;58.50;;;;;;5114028;28;20046;-74
2021/10/20 11:37:35;;;;;;;14.93;13.90;;;18.60;58.70;;;;;;5113210;28;20135;-75
2021/10/20 11:40:08;;;;;;;23.55;21.60;;;18.70;57.50;;;;;;5113646;28;20066;-75
2021/10/20 11:42:42;;;;;;;15.95;14.85;;;18.90;59.50;;;;;;5111171;28;20045;-74
2021/10/20 11:45:14;;;;;;;14.93;13.82;;;19.00;56.10;;;;;;5113984;28;20047;-74
2021/10/20 11:47:47;;;;;;;14.73;13.73;;;19.00;56.70;;;;;;5111316;28;20039;-75
2021/10/20 11:50:19;;;;;;;16.65;15.45;;;19.10;57.70;;;;;;5112629;28;20087;-74
2021/10/20 11:53:02;;;;;;;16.92;15.73;;;19.10;57.40;;;;;;5078950;28;20516;-76
2021/10/20 11:55:45;;;;;;;15.52;14.43;;;19.10;60.10;;;;;;5114138;28;20401;-75
2021/10/20 11:58:22;;;;;;;16.73;15.48;;;19.10;59.50;;;;;;5113751;28;20552;-75
2021/10/20 12:01:00;;;;;;;15.32;14.13;;;19.10;55.70;;;;;;5114065;28;20158;-73
2021/10/20 12:03:39;;;;;;;15.32;14.23;;;19.00;57.30;;;;;;5110468;28;20047;-75
2021/10/20 12:06:15;;;;;;;15.23;14.13;;;19.00;57.30;;;;;;5112879;28;20078;-76
2021/10/20 12:08:48;;;;;;;15.70;14.60;;;19.10;56.50;;;;;;5114335;28;20125;-76
2021/10/20 12:11:21;;;;;;;15.18;14.07;;;19.10;58.10;;;;;;5113310;28;20047;-75
2021/10/20 12:14:05;;;;;;;15.32;14.00;;;19.10;56.40;;;;;;5114020;28;20059;-76
2021/10/20 12:16:38;;;;;;;15.15;14.05;;;19.10;58.20;;;;;;5096342;28;20145;-75
2021/10/20 12:19:11;;;;;;;15.07;14.00;;;19.10;57.50;;;;;;5113520;28;20079;-75
2021/10/20 12:21:44;;;;;;;15.15;14.05;;;19.10;56.60;;;;;;5111935;28;20981;-76
2021/10/20 12:24:18;;;;;;;14.95;13.93;;;19.10;57.50;;;;;;5114199;28;20129;-75
2021/10/20 12:26:51;;;;;;;15.10;14.00;;;19.20;58.40;;;;;;5080400;28;20133;-75
2021/10/20 12:29:24;;;;;;;15.45;14.35;;;19.10;53.80;;;;;;5113844;28;20154;-76
2021/10/20 12:31:58;;;;;;;15.57;14.38;;;19.10;56.70;;;;;;5110806;28;20174;-75
2021/10/20 12:34:30;;;;;;;15.48;14.38;;;19.10;55.70;;;;;;5113853;28;20632;-75
2021/10/20 12:37:02;;;;;;;15.45;14.30;;;19.10;57.40;;;;;;5114187;28;20145;-75
2021/10/20 12:39:34;;;;;;;16.20;14.77;;;19.00;57.30;;;;;;5113167;28;20047;-75
2021/10/20 12:42:06;;;;;;;15.63;14.43;;;18.90;54.30;;;;;;5112034;28;20047;-76
2021/10/20 12:44:38;;;;;;;15.20;14.10;;;18.90;57.60;;;;;;5113234;28;20051;-76
2021/10/20 12:47:11;;;;;;;15.30;14.20;;;18.90;56.50;;;;;;5113988;28;20166;-76
2021/10/20 12:49:49;;;;;;;15.27;13.95;;;18.90;57.90;;;;;;5112503;28;20079;-75
2021/10/20 12:52:24;;;;;;;16.08;14.63;;;18.90;59.50;;;;;;5113090;28;20134;-75
2021/10/20 12:55:00;;;;;;;34.67;31.45;;;18.90;59.80;;;;;;5113665;28;20066;-75
2021/10/20 12:57:33;;;;;;;23.20;21.30;;;18.90;60.60;;;;;;5114134;28;20094;-75
2021/10/20 13:00:14;;;;;;;16.02;14.73;;;19.00;60.30;;;;;;5112521;28;20043;-74
2021/10/20 13:02:46;;;;;;;;;;;19.00;64.00;;;;;;5091895;28;20047;-76
2021/10/20 13:05:19;;;;;;;15.40;14.25;;;19.00;65.30;;;;;;5113195;28;19922;-76
2021/10/20 13:07:54;;;;;;;15.55;14.45;;;19.00;60.10;;;;;;5113205;28;20243;-76
2021/10/20 13:10:48;;;;;;;15.85;14.52;;;19.10;64.50;;;;;;5113344;28;20055;-74
2021/10/20 13:13:21;;;;;;;15.20;14.10;;;19.10;62.30;;;;;;5113393;28;20110;-75